Time;durP1;ratioP1;P1;durP2;ratioP2;P2;SDS_P1;SDS_P2;PMS_P1;PMS_P2;Temp;Humidity;BMP_temperature;BMP_pressure;BME280_temperature;BME280_humidity;BME280_pressure;Samples;Min_cycle;Max_cycle;Signal;HPM_P1;HPM_P2
2023/06/02 00:01:07;;;;;;;21.52;5.20;;;;;;;;;;5112159;28;20027;-63
2023/06/02 00:03:36;;;;;;;20.55;4.80;;;;;;;;;;5113032;28;20466;-62
2023/06/02 00:06:08;;;;;;;16.65;5.47;;;;;;;;;;5112429;28;20486;-62
2023/06/02 00:08:40;;;;;;;11.70;5.30;;;;;;;;;;5125118;28;20027;-63
2023/06/02 00:11:09;;;;;;;44.92;4.55;;;;;;;;;;5131449;28;20034;-62
2023/06/02 00:13:36;;;;;;;4.50;3.53;;;;;;;;;;5128093;28;20513;-62
2023/06/02 00:16:03;;;;;;;4.55;3.55;;;;;;;;;;5127836;28;20038;-62
2023/06/02 00:18:37;;;;;;;6.65;4.95;;;;;;;;;;5128244;28;20022;-62
2023/06/02 00:21:08;;;;;;;4.45;3.88;;;;;;;;;;5118179;28;20081;-62
2023/06/02 00:23:35;;;;;;;17.13;4.73;;;;;;;;;;5133039;28;20385;-62
2023/06/02 00:26:02;;;;;;;6.90;5.27;;;;;;;;;;5116277;28;20040;-62
2023/06/02 00:28:29;;;;;;;7.67;4.30;;;;;;;;;;5112213;28;20032;-62
2023/06/02 00:30:56;;;;;;;6.27;4.93;;;;;;;;;;5112324;28;20078;-62
2023/06/02 00:33:23;;;;;;;8.47;5.30;;;;;;;;;;5111177;28;20069;-63
2023/06/02 00:35:50;;;;;;;6.53;4.90;;;;;;;;;;5107317;28;20494;-62
2023/06/02 00:38:17;;;;;;;7.67;4.93;;;;;;;;;;5107560;28;20024;-62
2023/06/02 00:40:44;;;;;;;10.07;5.40;;;;;;;;;;5103767;28;20020;-63
2023/06/02 00:43:10;;;;;;;6.50;5.30;;;;;;;;;;5104457;28;20043;-62
2023/06/02 00:45:37;;;;;;;9.80;5.47;;;;;;;;;;5111778;28;20030;-63
2023/06/02 00:48:04;;;;;;;8.17;5.40;;;;;;;;;;5112088;28;20099;-63
2023/06/02 00:50:32;;;;;;;17.40;4.90;;;;;;;;;;5115600;28;20031;-64
2023/06/02 00:53:02;;;;;;;9.63;5.40;;;;;;;;;;5132581;28;20046;-63
2023/06/02 00:55:38;;;;;;;6.93;5.13;;;;;;;;;;5132802;27;20019;-62
2023/06/02 00:58:07;;;;;;;7.23;4.90;;;;;;;;;;5131283;27;20427;-62
2023/06/02 01:00:36;;;;;;;9.63;4.50;;;;;;;;;;5115936;27;20024;-62
2023/06/02 01:03:04;;;;;;;8.60;4.43;;;;;;;;;;5118337;27;20053;-63
2023/06/02 01:05:31;;;;;;;10.17;5.10;;;;;;;;;;5130971;27;20083;-63
2023/06/02 01:08:20;;;;;;;6.77;4.87;;;;;;;;;;5135906;27;20015;-63
2023/06/02 01:10:47;;;;;;;8.23;4.97;;;;;;;;;;5117950;27;20485;-63
2023/06/02 01:13:14;;;;;;;6.30;4.73;;;;;;;;;;5123275;27;20019;-63
2023/06/02 01:15:41;;;;;;;6.67;5.07;;;;;;;;;;5127955;27;20031;-62
2023/06/02 01:18:12;;;;;;;5.97;4.30;;;;;;;;;;5130024;27;20012;-62
2023/06/02 01:20:51;;;;;;;16.87;6.20;;;;;;;;;;5110188;28;20034;-62
2023/06/02 01:23:21;;;;;;;10.57;3.90;;;;;;;;;;5110276;28;20031;-62
2023/06/02 01:25:49;;;;;;;6.43;4.47;;;;;;;;;;5111061;27;20035;-62
2023/06/02 01:28:16;;;;;;;6.30;4.17;;;;;;;;;;5109933;28;20038;-63
2023/06/02 01:30:43;;;;;;;6.37;4.43;;;;;;;;;;5115186;28;20069;-63
2023/06/02 01:33:12;;;;;;;5.40;4.37;;;;;;;;;;5115305;28;20034;-63
2023/06/02 01:35:43;;;;;;;7.77;4.37;;;;;;;;;;5115228;28;20051;-62
2023/06/02 01:38:10;;;;;;;5.87;4.43;;;;;;;;;;5123642;27;20032;-63
2023/06/02 01:40:37;;;;;;;7.00;4.20;;;;;;;;;;5115304;28;20428;-62
2023/06/02 01:43:05;;;;;;;7.07;4.53;;;;;;;;;;5109899;28;20016;-62
2023/06/02 01:45:32;;;;;;;6.37;4.40;;;;;;;;;;5109968;28;20414;-62
2023/06/02 01:48:03;;;;;;;8.80;4.93;;;;;;;;;;5109753;28;20508;-62
2023/06/02 01:50:30;;;;;;;12.13;3.87;;;;;;;;;;5129155;27;20545;-63
2023/06/02 01:52:57;;;;;;;5.63;4.37;;;;;;;;;;5135039;27;20024;-63
2023/06/02 01:55:24;;;;;;;13.17;4.00;;;;;;;;;;5123345;27;20063;-63
2023/06/02 01:57:51;;;;;;;7.87;4.40;;;;;;;;;;5107313;27;20020;-62
2023/06/02 02:00:19;;;;;;;6.37;5.00;;;;;;;;;;5101967;28;20024;-62
2023/06/02 02:02:46;;;;;;;29.70;6.10;;;;;;;;;;5094174;28;20024;-62
2023/06/02 02:05:13;;;;;;;13.53;4.97;;;;;;;;;;5120153;27;20024;-63
2023/06/02 02:07:52;;;;;;;10.00;4.53;;;;;;;;;;5129564;27;20034;-63
2023/06/02 02:10:19;;;;;;;12.47;4.87;;;;;;;;;;5129797;27;20019;-62
2023/06/02 02:12:46;;;;;;;6.07;4.13;;;;;;;;;;5108171;27;20035;-62
2023/06/02 02:15:13;;;;;;;7.60;4.90;;;;;;;;;;5093222;28;20030;-61
2023/06/02 02:17:49;;;;;;;4.67;3.90;;;;;;;;;;5123148;27;20023;-62
2023/06/02 02:20:17;;;;;;;4.27;3.47;;;;;;;;;;5114079;28;20034;-63
2023/06/02 02:22:44;;;;;;;6.10;4.87;;;;;;;;;;5114162;28;20019;-62
2023/06/02 02:25:11;;;;;;;6.30;4.83;;;;;;;;;;5106993;28;20421;-63
2023/06/02 02:27:39;;;;;;;6.73;5.00;;;;;;;;;;5096238;27;20031;-62
2023/06/02 02:30:06;;;;;;;7.03;5.10;;;;;;;;;;5105738;27;20027;-62
2023/06/02 02:32:37;;;;;;;7.23;4.87;;;;;;;;;;5088586;28;20082;-62
2023/06/02 02:35:04;;;;;;;6.80;4.70;;;;;;;;;;5088614;28;20020;-62
2023/06/02 02:37:31;;;;;;;10.10;4.47;;;;;;;;;;5091880;28;20043;-62
2023/06/02 02:39:58;;;;;;;6.50;4.43;;;;;;;;;;5107201;27;20069;-62
2023/06/02 02:42:25;;;;;;;6.43;4.77;;;;;;;;;;5134009;27;20080;-62
2023/06/02 02:44:52;;;;;;;6.93;5.40;;;;;;;;;;5134654;27;20034;-62
2023/06/02 02:47:20;;;;;;;9.77;5.23;;;;;;;;;;5116031;27;20035;-62
2023/06/02 02:49:47;;;;;;;8.27;4.77;;;;;;;;;;5110828;27;20039;-63
2023/06/02 02:52:13;;;;;;;5.20;4.13;;;;;;;;;;5103544;27;20035;-63
2023/06/02 02:54:40;;;;;;;13.00;4.80;;;;;;;;;;5088225;28;20020;-62
2023/06/02 02:57:07;;;;;;;6.03;4.33;;;;;;;;;;5087969;28;20027;-62
2023/06/02 02:59:35;;;;;;;7.37;5.33;;;;;;;;;;5090548;28;20047;-62
2023/06/02 03:02:03;;;;;;;7.73;5.47;;;;;;;;;;5093398;28;20020;-62
2023/06/02 03:04:31;;;;;;;7.57;5.63;;;;;;;;;;5101144;27;20060;-63
2023/06/02 03:06:58;;;;;;;12.20;5.83;;;;;;;;;;5092953;28;20111;-62
2023/06/02 03:09:25;;;;;;;5.50;4.53;;;;;;;;;;5092686;28;20383;-63
2023/06/02 03:11:52;;;;;;;8.90;4.60;;;;;;;;;;5090153;28;20028;-62
2023/06/02 03:14:18;;;;;;;6.23;4.83;;;;;;;;;;5092099;27;20020;-63
2023/06/02 03:16:45;;;;;;;6.43;4.90;;;;;;;;;;5128357;27;20029;-63
2023/06/02 03:19:15;;;;;;;6.23;4.73;;;;;;;;;;5108480;27;20042;-62
2023/06/02 03:21:43;;;;;;;8.13;5.57;;;;;;;;;;5109650;28;20028;-62
2023/06/02 03:24:14;;;;;;;6.20;4.50;;;;;;;;;;5113013;28;20051;-62
2023/06/02 03:26:41;;;;;;;10.43;6.47;;;;;;;;;;5112808;28;20050;-62
2023/06/02 03:29:09;;;;;;;6.00;4.37;;;;;;;;;;5113019;28;20019;-62
2023/06/02 03:31:36;;;;;;;11.23;5.40;;;;;;;;;;5113803;27;20077;-62
2023/06/02 03:34:04;;;;;;;9.37;5.17;;;;;;;;;;5127057;27;20079;-63
2023/06/02 03:36:34;;;;;;;6.57;4.00;;;;;;;;;;5128219;27;20027;-62
2023/06/02 03:39:12;;;;;;;20.97;5.60;;;;;;;;;;5128306;27;20019;-63
2023/06/02 03:41:39;;;;;;;5.67;4.73;;;;;;;;;;5116295;27;20043;-63
2023/06/02 03:44:06;;;;;;;5.17;4.17;;;;;;;;;;5109191;28;20106;-62
2023/06/02 03:46:33;;;;;;;11.67;5.83;;;;;;;;;;5112590;28;20092;-62
2023/06/02 03:49:01;;;;;;;6.57;5.40;;;;;;;;;;5112845;28;20031;-62
2023/06/02 03:51:28;;;;;;;5.47;3.97;;;;;;;;;;5112729;28;20069;-63
2023/06/02 03:53:54;;;;;;;7.40;5.40;;;;;;;;;;5112539;28;20420;-62
2023/06/02 03:56:22;;;;;;;6.43;5.17;;;;;;;;;;5124112;27;20019;-63
2023/06/02 03:58:49;;;;;;;7.00;5.00;;;;;;;;;;5128104;28;20609;-62
2023/06/02 04:01:18;;;;;;;11.20;5.70;;;;;;;;;;5128066;28;20027;-63
2023/06/02 04:03:45;;;;;;;9.30;5.50;;;;;;;;;;5112045;28;21379;-62
2023/06/02 04:06:12;;;;;;;8.20;4.77;;;;;;;;;;5087566;28;20421;-62
2023/06/02 04:08:39;;;;;;;11.97;5.37;;;;;;;;;;5119051;28;20390;-62
2023/06/02 04:11:06;;;;;;;15.33;5.10;;;;;;;;;;5132692;28;20016;-63
2023/06/02 04:13:33;;;;;;;5.57;4.60;;;;;;;;;;5133341;28;20027;-62
2023/06/02 04:16:00;;;;;;;5.57;4.27;;;;;;;;;;5133041;28;20416;-62
2023/06/02 04:18:28;;;;;;;7.33;5.57;;;;;;;;;;5121841;28;20046;-63
2023/06/02 04:20:55;;;;;;;17.57;6.50;;;;;;;;;;5107338;28;20032;-62
2023/06/02 04:23:21;;;;;;;7.83;5.47;;;;;;;;;;5107357;28;20077;-62
2023/06/02 04:25:48;;;;;;;8.50;5.93;;;;;;;;;;5107435;28;20020;-62
2023/06/02 04:28:16;;;;;;;6.77;5.07;;;;;;;;;;5107206;28;20351;-62
2023/06/02 04:30:43;;;;;;;9.57;6.40;;;;;;;;;;5112484;28;20106;-62
2023/06/02 04:33:12;;;;;;;5.63;4.67;;;;;;;;;;5133111;27;20527;-62
2023/06/02 04:35:38;;;;;;;7.27;4.77;;;;;;;;;;5128110;27;20037;-62
2023/06/02 04:38:07;;;;;;;7.20;4.70;;;;;;;;;;5117725;27;20131;-62
2023/06/02 04:40:37;;;;;;;7.93;5.70;;;;;;;;;;5115656;28;20043;-63
2023/06/02 04:43:07;;;;;;;6.97;4.87;;;;;;;;;;5095620;28;20032;-62
2023/06/02 04:45:34;;;;;;;13.13;6.77;;;;;;;;;;5090848;28;20036;-62
2023/06/02 04:48:01;;;;;;;10.33;6.17;;;;;;;;;;5110120;27;20110;-62
2023/06/02 04:50:28;;;;;;;6.03;5.40;;;;;;;;;;5131634;27;20035;-62
2023/06/02 04:52:55;;;;;;;8.47;6.30;;;;;;;;;;5135551;27;20090;-62
2023/06/02 04:55:22;;;;;;;12.73;6.67;;;;;;;;;;5119448;27;20031;-62
2023/06/02 04:57:48;;;;;;;9.33;6.77;;;;;;;;;;5115720;28;20020;-62
2023/06/02 05:00:15;;;;;;;19.37;5.57;;;;;;;;;;5128380;27;20023;-62
2023/06/02 05:02:42;;;;;;;10.67;6.20;;;;;;;;;;5135954;27;20496;-63
2023/06/02 05:05:09;;;;;;;7.00;5.47;;;;;;;;;;5093297;27;20412;-62
2023/06/02 05:07:36;;;;;;;15.20;5.37;;;;;;;;;;5090235;28;20032;-62
2023/06/02 05:10:06;;;;;;;7.10;4.63;;;;;;;;;;5090499;28;20099;-62
2023/06/02 05:12:32;;;;;;;4.83;3.97;;;;;;;;;;5108270;27;20514;-63
2023/06/02 05:14:59;;;;;;;12.20;6.23;;;;;;;;;;5113734;28;20075;-62
2023/06/02 05:17:30;;;;;;;7.40;5.67;;;;;;;;;;5115399;28;20546;-62
2023/06/02 05:19:57;;;;;;;7.43;5.27;;;;;;;;;;5115229;28;20027;-63
2023/06/02 05:22:24;;;;;;;8.00;5.27;;;;;;;;;;5128977;27;20543;-62
2023/06/02 05:24:50;;;;;;;5.30;4.47;;;;;;;;;;5135646;27;20034;-62
2023/06/02 05:27:17;;;;;;;9.63;5.10;;;;;;;;;;5132723;27;20039;-62
2023/06/02 05:29:44;;;;;;;5.87;4.67;;;;;;;;;;5130826;27;20023;-62
2023/06/02 05:32:11;;;;;;;7.10;5.13;;;;;;;;;;5111416;27;20029;-62
2023/06/02 05:34:39;;;;;;;5.07;3.90;;;;;;;;;;5123571;27;20023;-62
2023/06/02 05:37:06;;;;;;;5.27;4.23;;;;;;;;;;5133104;27;20465;-62
2023/06/02 05:39:32;;;;;;;7.20;4.23;;;;;;;;;;5135408;27;20025;-62
2023/06/02 05:41:59;;;;;;;9.03;6.47;;;;;;;;;;5134524;27;20077;-62
2023/06/02 05:44:26;;;;;;;8.90;6.03;;;;;;;;;;5135184;27;20072;-62
2023/06/02 05:46:53;;;;;;;6.37;4.87;;;;;;;;;;5120264;27;20027;-62
2023/06/02 05:49:19;;;;;;;7.30;5.70;;;;;;;;;;5112747;28;20098;-62
2023/06/02 05:51:46;;;;;;;13.27;5.03;;;;;;;;;;5109996;28;20370;-63
2023/06/02 05:54:13;;;;;;;7.70;5.70;;;;;;;;;;5109823;28;20034;-62
2023/06/02 05:56:40;;;;;;;5.77;5.03;;;;;;;;;;5109297;28;20031;-62
2023/06/02 05:59:06;;;;;;;5.60;4.87;;;;;;;;;;5111375;27;20077;-62
2023/06/02 06:01:33;;;;;;;7.63;6.47;;;;;;;;;;5114633;28;20557;-62
2023/06/02 06:04:00;;;;;;;8.93;6.03;;;;;;;;;;5104661;28;20103;-62
2023/06/02 06:06:27;;;;;;;8.57;5.93;;;;;;;;;;5096882;28;20043;-62
2023/06/02 06:08:54;;;;;;;9.37;5.97;;;;;;;;;;5125676;27;20058;-62
2023/06/02 06:11:22;;;;;;;6.30;4.87;;;;;;;;;;5111976;27;20028;-62
2023/06/02 06:13:49;;;;;;;8.37;6.07;;;;;;;;;;5109454;28;20039;-62
2023/06/02 06:16:16;;;;;;;10.03;6.53;;;;;;;;;;5109236;28;20411;-62
2023/06/02 06:18:44;;;;;;;7.23;6.07;;;;;;;;;;5109206;28;20016;-62
2023/06/02 06:21:10;;;;;;;8.07;5.67;;;;;;;;;;5108356;27;20053;-62
2023/06/02 06:23:37;;;;;;;9.80;6.47;;;;;;;;;;5114118;28;20012;-62
2023/06/02 06:26:04;;;;;;;6.40;5.13;;;;;;;;;;5114307;28;20036;-62
2023/06/02 06:28:31;;;;;;;11.97;6.70;;;;;;;;;;5114215;28;20360;-62
2023/06/02 06:30:58;;;;;;;5.73;4.87;;;;;;;;;;5123232;27;20474;-62
2023/06/02 06:33:25;;;;;;;8.57;6.63;;;;;;;;;;5116856;27;20473;-62
2023/06/02 06:35:51;;;;;;;8.17;6.03;;;;;;;;;;5116503;27;20046;-63
2023/06/02 06:38:18;;;;;;;9.10;5.57;;;;;;;;;;5128678;27;20038;-63
2023/06/02 06:40:45;;;;;;;10.27;6.20;;;;;;;;;;5129270;27;20027;-62
2023/06/02 06:43:15;;;;;;;10.10;7.10;;;;;;;;;;5129157;27;20083;-62
2023/06/02 06:45:42;;;;;;;7.97;6.03;;;;;;;;;;5123281;27;20367;-62
2023/06/02 06:48:10;;;;;;;7.57;5.00;;;;;;;;;;5113799;28;20020;-62
2023/06/02 06:50:37;;;;;;;8.17;6.23;;;;;;;;;;5113528;28;20035;-62
2023/06/02 06:53:03;;;;;;;10.67;7.73;;;;;;;;;;5113671;28;20031;-62
2023/06/02 06:55:30;;;;;;;9.53;7.10;;;;;;;;;;5120840;27;20089;-62
2023/06/02 06:57:57;;;;;;;8.43;6.30;;;;;;;;;;5129172;27;20019;-62
2023/06/02 07:00:24;;;;;;;9.40;5.80;;;;;;;;;;5128742;27;20500;-62
2023/06/02 07:02:51;;;;;;;6.60;5.50;;;;;;;;;;5128737;27;20027;-62
2023/06/02 07:05:18;;;;;;;9.77;7.37;;;;;;;;;;5128624;27;20070;-62
2023/06/02 07:07:46;;;;;;;8.50;6.67;;;;;;;;;;5124706;27;20039;-62
2023/06/02 07:10:16;;;;;;;9.33;7.13;;;;;;;;;;5113429;28;20366;-62
2023/06/02 07:12:43;;;;;;;9.17;6.77;;;;;;;;;;5112785;28;20554;-62
2023/06/02 07:15:10;;;;;;;11.00;6.70;;;;;;;;;;5113252;28;20024;-63
2023/06/02 07:17:37;;;;;;;6.17;5.57;;;;;;;;;;5113411;28;20024;-62
2023/06/02 07:20:04;;;;;;;9.40;6.37;;;;;;;;;;5119223;27;20110;-62
2023/06/02 07:22:30;;;;;;;8.73;4.97;;;;;;;;;;5128574;27;20055;-62
2023/06/02 07:24:57;;;;;;;17.60;7.67;;;;;;;;;;5128429;27;20355;-62
2023/06/02 07:27:24;;;;;;;9.83;6.03;;;;;;;;;;5128317;27;20069;-62
2023/06/02 07:29:50;;;;;;;9.73;6.53;;;;;;;;;;5131329;27;20015;-62
2023/06/02 07:32:18;;;;;;;8.20;6.80;;;;;;;;;;5122467;27;20625;-62
2023/06/02 07:34:45;;;;;;;8.47;6.13;;;;;;;;;;5113169;28;20457;-62
2023/06/02 07:37:12;;;;;;;8.23;6.50;;;;;;;;;;5112788;28;20050;-63
2023/06/02 07:39:39;;;;;;;18.83;7.43;;;;;;;;;;5112844;28;20043;-62
2023/06/02 07:42:06;;;;;;;6.60;4.73;;;;;;;;;;5109127;28;20406;-62
2023/06/02 07:44:32;;;;;;;9.40;6.60;;;;;;;;;;5118147;27;20540;-62
2023/06/02 07:47:00;;;;;;;14.87;7.57;;;;;;;;;;5127647;27;20031;-63
2023/06/02 07:49:27;;;;;;;7.63;4.97;;;;;;;;;;5127856;27;20428;-62
2023/06/02 07:51:54;;;;;;;9.03;6.77;;;;;;;;;;5130642;27;20489;-62
2023/06/02 07:54:21;;;;;;;9.00;7.03;;;;;;;;;;5126231;27;20125;-62
2023/06/02 07:56:50;;;;;;;10.23;8.10;;;;;;;;;;5112793;28;20027;-62
2023/06/02 07:59:18;;;;;;;12.60;7.33;;;;;;;;;;5112455;28;20020;-62
2023/06/02 08:01:48;;;;;;;11.33;5.93;;;;;;;;;;5112637;28;20040;-62
2023/06/02 08:04:14;;;;;;;10.53;6.93;;;;;;;;;;5109085;28;20024;-62
2023/06/02 08:06:41;;;;;;;6.67;5.70;;;;;;;;;;5116136;27;20677;-62
2023/06/02 08:09:08;;;;;;;12.70;6.60;;;;;;;;;;5128611;27;20051;-62
2023/06/02 08:11:35;;;;;;;6.67;4.97;;;;;;;;;;5107088;28;20381;-62
2023/06/02 08:14:02;;;;;;;7.50;5.50;;;;;;;;;;5113485;28;20038;-62
2023/06/02 08:16:29;;;;;;;9.40;6.23;;;;;;;;;;5116766;28;20020;-62
2023/06/02 08:18:56;;;;;;;12.57;6.33;;;;;;;;;;5122862;27;20059;-62
2023/06/02 08:21:23;;;;;;;8.07;5.90;;;;;;;;;;5136692;27;20019;-62
2023/06/02 08:23:49;;;;;;;8.23;5.63;;;;;;;;;;5137156;27;20570;-62
2023/06/02 08:26:17;;;;;;;7.63;4.93;;;;;;;;;;5134512;27;20035;-62
2023/06/02 08:28:48;;;;;;;8.13;5.27;;;;;;;;;;5131418;27;20035;-62
2023/06/02 08:31:15;;;;;;;15.80;7.50;;;;;;;;;;5120086;27;20409;-62
2023/06/02 08:33:42;;;;;;;8.93;6.50;;;;;;;;;;5110900;28;20548;-62
2023/06/02 08:36:09;;;;;;;12.23;6.80;;;;;;;;;;5112424;28;20024;-62
2023/06/02 08:38:40;;;;;;;9.60;6.60;;;;;;;;;;5116227;28;20028;-62
2023/06/02 08:41:10;;;;;;;11.40;4.80;;;;;;;;;;5116017;28;20048;-62
2023/06/02 08:43:37;;;;;;;24.40;5.90;;;;;;;;;;5130272;27;20034;-62
2023/06/02 08:46:04;;;;;;;8.07;5.53;;;;;;;;;;5136699;27;20032;-62
2023/06/02 08:48:31;;;;;;;8.27;6.80;;;;;;;;;;5134718;27;20415;-62
2023/06/02 08:50:58;;;;;;;6.93;5.90;;;;;;;;;;5131251;27;20034;-62
2023/06/02 08:53:25;;;;;;;9.70;6.37;;;;;;;;;;5130788;27;20346;-62
2023/06/02 08:55:52;;;;;;;5.63;4.83;;;;;;;;;;5112911;27;20054;-62
2023/06/02 08:58:19;;;;;;;6.63;4.37;;;;;;;;;;5111451;28;20059;-62
2023/06/02 09:00:45;;;;;;;7.90;5.20;;;;;;;;;;5115837;28;20088;-62
2023/06/02 09:03:16;;;;;;;5.70;4.70;;;;;;;;;;5115916;28;20060;-62
2023/06/02 09:05:43;;;;;;;8.07;5.33;;;;;;;;;;5115673;28;20184;-62
2023/06/02 09:08:11;;;;;;;10.40;6.20;;;;;;;;;;5133775;27;20369;-62
2023/06/02 09:10:41;;;;;;;14.07;7.90;;;;;;;;;;5134646;27;20444;-62
2023/06/02 09:13:11;;;;;;;10.37;5.93;;;;;;;;;;5130610;27;20098;-62
2023/06/02 09:15:57;;;;;;;10.27;7.07;;;;;;;;;;5130718;27;20031;-62
2023/06/02 09:18:24;;;;;;;11.17;8.17;;;;;;;;;;5128708;27;20053;-62
2023/06/02 09:20:52;;;;;;;8.90;6.00;;;;;;;;;;5111370;28;20477;-62
2023/06/02 09:23:19;;;;;;;17.87;6.07;;;;;;;;;;5116275;27;20046;-62
2023/06/02 09:25:46;;;;;;;9.27;6.17;;;;;;;;;;5115643;28;20407;-62
2023/06/02 09:28:13;;;;;;;15.00;7.43;;;;;;;;;;5115417;28;20036;-62
2023/06/02 09:30:40;;;;;;;8.07;6.63;;;;;;;;;;5115268;28;20027;-62
2023/06/02 09:33:11;;;;;;;10.57;6.50;;;;;;;;;;5124864;27;20413;-62
2023/06/02 09:35:40;;;;;;;8.47;7.57;;;;;;;;;;5130179;27;20106;-62
2023/06/02 09:38:07;;;;;;;8.57;6.40;;;;;;;;;;5130041;27;20469;-62
2023/06/02 09:40:35;;;;;;;11.53;8.33;;;;;;;;;;5130254;27;20733;-62
2023/06/02 09:43:03;;;;;;;5.60;4.90;;;;;;;;;;5120437;27;20059;-62
2023/06/02 09:45:30;;;;;;;10.53;6.50;;;;;;;;;;5114807;28;20031;-62
2023/06/02 09:47:57;;;;;;;6.60;5.70;;;;;;;;;;5114794;28;20023;-62
2023/06/02 09:50:41;;;;;;;8.03;6.37;;;;;;;;;;5114965;28;20034;-62
2023/06/02 09:53:08;;;;;;;7.90;6.40;;;;;;;;;;5114880;28;20031;-62
2023/06/02 09:55:37;;;;;;;9.60;7.87;;;;;;;;;;5129192;27;20035;-62
2023/06/02 09:58:07;;;;;;;10.77;8.03;;;;;;;;;;5129881;27;20077;-62
2023/06/02 10:00:37;;;;;;;7.60;5.83;;;;;;;;;;5129803;27;20094;-62
2023/06/02 10:03:06;;;;;;;11.90;6.83;;;;;;;;;;5129846;27;20030;-62
2023/06/02 10:05:32;;;;;;;6.47;4.57;;;;;;;;;;5130293;27;20109;-62
2023/06/02 10:08:02;;;;;;;6.77;5.30;;;;;;;;;;5117097;27;20042;-62
2023/06/02 10:10:46;;;;;;;9.10;5.43;;;;;;;;;;5114649;28;20023;-62
2023/06/02 10:13:33;;;;;;;8.00;5.50;;;;;;;;;;5114542;28;20024;-62
2023/06/02 10:16:18;;;;;;;7.93;5.67;;;;;;;;;;5114288;28;20024;-62
2023/06/02 10:19:08;;;;;;;9.05;6.82;;;;;;;;;;5116496;27;20023;-62
2023/06/02 10:21:50;;;;;;;11.13;6.80;;;;;;;;;;5128991;27;20026;-63
2023/06/02 10:24:17;;;;;;;10.13;6.27;;;;;;;;;;5129349;27;20050;-62
2023/06/02 10:26:47;;;;;;;9.50;7.73;;;;;;;;;;5129198;27;20362;-62
2023/06/02 10:29:14;;;;;;;13.73;8.60;;;;;;;;;;5132904;27;20504;-62
2023/06/02 10:31:44;;;;;;;12.80;8.70;;;;;;;;;;5121923;27;20441;-62
2023/06/02 10:34:30;;;;;;;13.10;8.07;;;;;;;;;;5113583;28;20019;-62
2023/06/02 10:37:06;;;;;;;10.80;9.07;;;;;;;;;;5113833;28;20439;-63
2023/06/02 10:39:36;;;;;;;18.27;8.10;;;;;;;;;;5113634;28;20027;-62
2023/06/02 10:42:06;;;;;;;19.03;8.20;;;;;;;;;;5108380;28;20119;-62
2023/06/02 10:44:33;;;;;;;9.40;7.50;;;;;;;;;;5125824;27;20389;-62
2023/06/02 10:47:18;;;;;;;18.03;10.27;;;;;;;;;;5128769;27;20461;-62
2023/06/02 10:49:54;;;;;;;11.88;9.05;;;;;;;;;;5128655;27;20027;-62
2023/06/02 10:52:22;;;;;;;11.03;7.43;;;;;;;;;;5133970;27;20023;-62
2023/06/02 10:55:08;;;;;;;14.87;9.90;;;;;;;;;;5130429;27;20036;-62
2023/06/02 10:57:55;;;;;;;12.57;8.03;;;;;;;;;;5096529;28;20035;-62
2023/06/02 11:00:44;;;;;;;6.60;5.67;;;;;;;;;;5113180;28;20024;-62
2023/06/02 11:03:23;;;;;;;10.10;8.63;;;;;;;;;;5110571;28;20058;-62
2023/06/02 11:05:50;;;;;;;15.27;10.60;;;;;;;;;;5108056;28;20031;-62
2023/06/02 11:08:18;;;;;;;16.60;8.73;;;;;;;;;;5121407;27;20106;-62
2023/06/02 11:10:48;;;;;;;10.87;7.93;;;;;;;;;;5128078;27;20103;-62
2023/06/02 11:13:15;;;;;;;10.93;8.80;;;;;;;;;;5130949;27;20015;-64
2023/06/02 11:16:00;;;;;;;8.30;7.13;;;;;;;;;;5133780;27;20051;-62
2023/06/02 11:18:31;;;;;;;8.98;7.82;;;;;;;;;;5133783;27;20030;-62
2023/06/02 11:20:59;;;;;;;11.50;8.80;;;;;;;;;;5116666;27;20031;-62
2023/06/02 11:23:26;;;;;;;12.27;8.03;;;;;;;;;;5113205;28;20019;-62
2023/06/02 11:26:01;;;;;;;9.47;7.93;;;;;;;;;;5109488;28;20036;-62
2023/06/02 11:28:29;;;;;;;19.83;8.87;;;;;;;;;;5107655;28;20032;-62
2023/06/02 11:31:12;;;;;;;17.40;10.33;;;;;;;;;;5107400;28;20116;-62
2023/06/02 11:33:41;;;;;;;10.70;8.67;;;;;;;;;;5086861;28;20032;-62
2023/06/02 11:36:12;;;;;;;10.30;7.90;;;;;;;;;;5090814;28;20055;-62
2023/06/02 11:38:39;;;;;;;10.90;8.17;;;;;;;;;;5092386;28;20039;-62
2023/06/02 11:41:10;;;;;;;9.70;8.23;;;;;;;;;;5091457;28;20036;-62
2023/06/02 11:43:37;;;;;;;8.60;7.03;;;;;;;;;;5103549;27;20026;-62
2023/06/02 11:46:10;;;;;;;7.80;6.73;;;;;;;;;;5133229;27;20049;-62
2023/06/02 11:48:40;;;;;;;11.70;7.30;;;;;;;;;;5129033;27;20026;-62
2023/06/02 11:51:07;;;;;;;11.37;7.93;;;;;;;;;;5127953;27;20023;-62
2023/06/02 11:53:35;;;;;;;13.63;7.17;;;;;;;;;;5118140;27;20063;-62
2023/06/02 11:56:01;;;;;;;8.83;7.43;;;;;;;;;;5107529;28;20374;-62
2023/06/02 11:58:29;;;;;;;8.13;6.37;;;;;;;;;;5110983;28;20035;-62
2023/06/02 12:01:09;;;;;;;10.10;7.93;;;;;;;;;;5112680;28;20538;-62
2023/06/02 12:03:36;;;;;;;9.73;6.93;;;;;;;;;;5121488;28;20411;-62
2023/06/02 12:06:16;;;;;;;10.77;7.57;;;;;;;;;;5132875;28;20026;-62
2023/06/02 12:08:43;;;;;;;10.40;8.17;;;;;;;;;;5133120;28;20023;-62
2023/06/02 12:11:19;;;;;;;12.83;6.60;;;;;;;;;;5128143;28;20027;-62
2023/06/02 12:14:02;;;;;;;8.53;5.60;;;;;;;;;;5127515;28;20015;-62
2023/06/02 12:16:31;;;;;;;13.33;7.67;;;;;;;;;;5111267;28;20020;-61
2023/06/02 12:19:14;;;;;;;17.07;8.93;;;;;;;;;;5106865;28;20032;-62
2023/06/02 12:21:42;;;;;;;8.43;6.97;;;;;;;;;;5111516;28;20031;-62
2023/06/02 12:24:10;;;;;;;11.20;8.30;;;;;;;;;;5112217;28;20072;-62
2023/06/02 12:26:40;;;;;;;8.83;7.50;;;;;;;;;;5112377;28;20027;-61
2023/06/02 12:29:07;;;;;;;10.43;7.63;;;;;;;;;;5113254;28;20031;-61
2023/06/02 12:31:34;;;;;;;9.10;7.73;;;;;;;;;;5111885;28;20012;-62
2023/06/02 12:34:01;;;;;;;13.40;9.13;;;;;;;;;;5106756;28;20042;-62
2023/06/02 12:36:28;;;;;;;13.73;10.50;;;;;;;;;;5106725;28;20100;-62
2023/06/02 12:38:55;;;;;;;9.37;8.37;;;;;;;;;;5106858;28;20538;-62
2023/06/02 12:41:22;;;;;;;11.93;9.20;;;;;;;;;;5125913;28;20100;-62
2023/06/02 12:56:11;;;;;;;16.20;8.40;;;;;;;;;;5092132;27;2223100;-60
2023/06/02 12:58:38;;;;;;;17.60;8.53;;;;;;;;;;5124851;28;20031;-60
2023/06/02 13:01:05;;;;;;;8.67;7.03;;;;;;;;;;5125008;28;20078;-60
2023/06/02 13:03:32;;;;;;;16.57;9.27;;;;;;;;;;5124135;27;20031;-60
2023/06/02 13:06:00;;;;;;;8.73;7.83;;;;;;;;;;5124868;27;20457;-60
2023/06/02 13:08:27;;;;;;;9.87;7.50;;;;;;;;;;5129358;28;20533;-60
2023/06/02 13:10:56;;;;;;;14.20;9.33;;;;;;;;;;5130359;28;20026;-60
2023/06/02 13:13:26;;;;;;;10.70;8.63;;;;;;;;;;5130315;28;20031;-60
2023/06/02 13:15:54;;;;;;;11.07;8.93;;;;;;;;;;5126089;28;20039;-60
2023/06/02 13:18:21;;;;;;;14.20;9.53;;;;;;;;;;5129594;28;20377;-60
2023/06/02 13:20:48;;;;;;;10.87;8.70;;;;;;;;;;5124786;27;20023;-60
2023/06/02 13:23:15;;;;;;;10.20;8.53;;;;;;;;;;5124687;28;20024;-61
2023/06/02 13:25:42;;;;;;;13.23;9.20;;;;;;;;;;5106386;28;20039;-60
2023/06/02 13:28:09;;;;;;;9.90;7.63;;;;;;;;;;5104000;28;20390;-60
2023/06/02 13:30:36;;;;;;;13.20;10.07;;;;;;;;;;5112260;28;20034;-60
2023/06/02 13:33:02;;;;;;;11.90;9.63;;;;;;;;;;5129872;27;20038;-60
2023/06/02 13:35:30;;;;;;;32.87;8.10;;;;;;;;;;5129415;28;20081;-60
2023/06/02 13:37:57;;;;;;;13.27;8.53;;;;;;;;;;5129846;27;20412;-60
2023/06/02 13:40:27;;;;;;;10.97;8.17;;;;;;;;;;5127565;28;20023;-61
2023/06/02 13:42:54;;;;;;;10.07;8.47;;;;;;;;;;5113935;28;20501;-60
2023/06/02 13:45:21;;;;;;;13.07;8.03;;;;;;;;;;5103639;28;20390;-60
2023/06/02 13:47:48;;;;;;;11.20;6.37;;;;;;;;;;5103673;28;20028;-60
2023/06/02 13:50:15;;;;;;;13.63;9.10;;;;;;;;;;5106064;28;20026;-60
2023/06/02 13:52:42;;;;;;;11.63;8.13;;;;;;;;;;5120005;28;20050;-62
2023/06/02 13:55:09;;;;;;;11.53;7.63;;;;;;;;;;5106909;28;20058;-61
2023/06/02 13:57:36;;;;;;;9.80;8.00;;;;;;;;;;5095118;28;20028;-61
2023/06/02 14:00:03;;;;;;;8.63;7.53;;;;;;;;;;5095334;28;20027;-60
2023/06/02 14:02:30;;;;;;;9.57;7.10;;;;;;;;;;5098123;28;20081;-60
2023/06/02 14:04:57;;;;;;;11.50;7.43;;;;;;;;;;5111729;28;20034;-61
2023/06/02 14:07:24;;;;;;;12.00;8.20;;;;;;;;;;5110039;28;20078;-61
2023/06/02 14:09:51;;;;;;;10.67;6.57;;;;;;;;;;5107159;28;20444;-61
2023/06/02 14:12:19;;;;;;;10.17;6.83;;;;;;;;;;5089785;28;20028;-60
2023/06/02 14:14:45;;;;;;;15.60;7.27;;;;;;;;;;5092279;28;20035;-61
2023/06/02 14:17:12;;;;;;;9.23;6.83;;;;;;;;;;5095041;28;20028;-60
2023/06/02 14:19:39;;;;;;;8.23;6.20;;;;;;;;;;5094639;28;20020;-62
2023/06/02 14:22:06;;;;;;;9.47;6.33;;;;;;;;;;5114156;28;20530;-60
2023/06/02 14:24:33;;;;;;;9.57;7.13;;;;;;;;;;5109551;28;20050;-60
2023/06/02 14:27:00;;;;;;;15.57;7.67;;;;;;;;;;5104781;28;20110;-61
2023/06/02 14:29:26;;;;;;;12.00;5.90;;;;;;;;;;5105531;28;20476;-60
2023/06/02 14:31:53;;;;;;;12.77;7.97;;;;;;;;;;5109559;28;20519;-60
2023/06/02 14:34:20;;;;;;;10.27;6.50;;;;;;;;;;5107868;28;20541;-60
2023/06/02 14:36:47;;;;;;;8.40;6.80;;;;;;;;;;5111652;28;20020;-60
2023/06/02 14:39:13;;;;;;;7.70;6.47;;;;;;;;;;5114966;28;20417;-60
2023/06/02 14:41:40;;;;;;;7.30;6.20;;;;;;;;;;5114585;28;20019;-61
2023/06/02 14:44:07;;;;;;;8.83;6.17;;;;;;;;;;5104766;28;20036;-61
2023/06/02 14:46:34;;;;;;;14.83;7.37;;;;;;;;;;5094298;28;20024;-61
2023/06/02 14:49:01;;;;;;;10.07;7.60;;;;;;;;;;5091888;28;20028;-61
2023/06/02 14:51:27;;;;;;;10.63;6.43;;;;;;;;;;5082839;28;20032;-61
2023/06/02 14:53:55;;;;;;;8.07;5.87;;;;;;;;;;5081720;28;20027;-61
2023/06/02 14:56:22;;;;;;;10.07;6.83;;;;;;;;;;5108924;28;20075;-61
2023/06/02 14:58:49;;;;;;;8.23;5.93;;;;;;;;;;5108785;28;20111;-60